Time;durP1;ratioP1;P1;durP2;ratioP2;P2;SDS_P1;SDS_P2;PMS_P1;PMS_P2;Temp;Humidity;BMP_temperature;BMP_pressure;BME280_temperature;BME280_humidity;BME280_pressure;Samples;Min_cycle;Max_cycle;Signal;HPM_P1;HPM_P2
2022/10/06 00:01:14;;;;;;;11.15;1.50;;;12.70;99.90;;;;;;5088872;28;20036;-82
2022/10/06 00:03:40;;;;;;;11.90;1.60;;;12.70;99.90;;;;;;5086688;28;20093;-85
2022/10/06 00:06:07;;;;;;;8.10;1.55;;;12.70;99.90;;;;;;5071745;28;20028;-85
2022/10/06 00:08:36;;;;;;;13.48;2.40;;;12.70;99.90;;;;;;5043413;28;20192;-86
2022/10/06 00:11:02;;;;;;;20.98;2.38;;;12.60;99.90;;;;;;5052385;28;20123;-82
2022/10/06 00:13:28;;;;;;;11.02;2.00;;;12.60;99.90;;;;;;5047436;28;20082;-86
2022/10/06 00:15:54;;;;;;;12.43;1.65;;;12.60;99.90;;;;;;5072707;28;20475;-87
2022/10/06 00:18:20;;;;;;;12.55;2.25;;;12.60;99.90;;;;;;5054064;28;20079;-86
2022/10/06 00:20:58;;;;;;;27.65;2.35;;;12.60;99.90;;;;;;5048065;28;20093;-84
2022/10/06 00:23:24;;;;;;;12.70;2.00;;;12.70;99.90;;;;;;5073380;28;20036;-86
2022/10/06 00:25:51;;;;;;;14.15;2.13;;;12.70;99.90;;;;;;5055755;28;20086;-83
2022/10/06 00:28:17;;;;;;;14.85;2.08;;;12.70;99.90;;;;;;5056038;28;20055;-87
2022/10/06 00:30:44;;;;;;;11.93;1.95;;;12.70;99.90;;;;;;5055868;28;20040;-84
2022/10/06 00:33:15;;;;;;;12.52;2.15;;;12.70;99.90;;;;;;5053916;28;20045;-86
2022/10/06 00:35:42;;;;;;;15.45;2.28;;;12.70;99.90;;;;;;5067919;28;21580;-85
2022/10/06 00:38:13;;;;;;;16.65;2.08;;;12.70;99.90;;;;;;5071233;28;20130;-83
2022/10/06 00:40:47;;;;;;;13.27;2.03;;;12.70;99.90;;;;;;5071154;28;20112;-86
2022/10/06 00:43:51;;;;;;;18.10;2.95;;;12.60;99.90;;;;;;5057253;28;20495;-82
2022/10/06 00:46:23;;;;;;;20.83;2.53;;;12.60;99.90;;;;;;5072207;28;20052;-84
2022/10/06 00:48:54;;;;;;;17.83;2.05;;;12.60;99.90;;;;;;5069033;28;20480;-84
2022/10/06 00:51:21;;;;;;;18.08;2.28;;;12.50;99.90;;;;;;5051266;28;20044;-84
2022/10/06 00:53:47;;;;;;;23.13;2.83;;;12.50;99.90;;;;;;5050060;28;20040;-81
2022/10/06 00:56:13;;;;;;;19.60;2.85;;;12.40;99.90;;;;;;5068805;28;20115;-83
2022/10/06 00:58:39;;;;;;;16.83;2.40;;;12.50;99.90;;;;;;5071092;28;20182;-82
2022/10/06 01:01:06;;;;;;;16.30;2.33;;;12.50;99.90;;;;;;5067341;28;20119;-85
2022/10/06 01:03:37;;;;;;;15.30;2.20;;;12.40;99.90;;;;;;5063109;28;20037;-84
2022/10/06 01:06:04;;;;;;;19.27;2.08;;;12.30;99.90;;;;;;5043092;28;20041;-86
2022/10/06 01:08:30;;;;;;;17.13;2.42;;;12.30;99.90;;;;;;5067413;28;20069;-86
2022/10/06 01:10:59;;;;;;;15.82;2.25;;;12.30;99.90;;;;;;5066401;28;20059;-84
2022/10/06 01:13:26;;;;;;;18.30;2.45;;;12.20;99.90;;;;;;5075420;28;20040;-85
2022/10/06 01:15:55;;;;;;;14.40;2.15;;;12.30;99.90;;;;;;5067097;28;20040;-85
2022/10/06 01:18:25;;;;;;;18.80;2.40;;;12.40;99.90;;;;;;5062334;28;20130;-86
2022/10/06 01:21:04;;;;;;;16.63;2.47;;;12.40;99.90;;;;;;5059549;28;20477;-82
2022/10/06 01:23:32;;;;;;;13.70;2.38;;;12.40;99.90;;;;;;5071166;28;20079;-82
2022/10/06 01:26:00;;;;;;;15.05;2.10;;;12.50;99.90;;;;;;5063902;28;20079;-83
2022/10/06 01:28:26;;;;;;;14.43;2.13;;;12.50;99.90;;;;;;5054941;28;20048;-88
2022/10/06 01:30:53;;;;;;;11.27;2.13;;;12.50;99.90;;;;;;5042351;28;20061;-83
2022/10/06 01:33:20;;;;;;;13.13;2.30;;;12.50;99.90;;;;;;5047118;28;20093;-86
2022/10/06 01:35:49;;;;;;;15.98;2.38;;;12.50;99.90;;;;;;5038803;28;20036;-87
2022/10/06 01:38:16;;;;;;;24.77;2.55;;;12.50;99.90;;;;;;5061158;28;20048;-82
2022/10/06 01:40:43;;;;;;;16.33;1.92;;;12.50;99.90;;;;;;5036701;28;20045;-84
2022/10/06 01:43:08;;;;;;;16.35;2.55;;;12.30;99.90;;;;;;5054366;28;20123;-82
2022/10/06 01:45:34;;;;;;;18.70;2.50;;;12.50;99.90;;;;;;5048707;28;20509;-85
2022/10/06 01:48:00;;;;;;;17.48;2.67;;;12.40;99.90;;;;;;5061447;28;20051;-82
2022/10/06 01:50:25;;;;;;;15.77;1.95;;;12.30;99.90;;;;;;5055877;28;20044;-83
2022/10/06 01:52:51;;;;;;;16.60;2.40;;;12.30;99.90;;;;;;5058479;28;20356;-85
2022/10/06 01:55:16;;;;;;;17.67;2.28;;;12.30;99.90;;;;;;5060364;28;20060;-83
2022/10/06 01:57:42;;;;;;;16.20;2.13;;;12.30;99.90;;;;;;5055708;28;20048;-83
2022/10/06 02:00:10;;;;;;;16.88;2.08;;;12.20;99.90;;;;;;5038568;28;20056;-83
2022/10/06 02:02:35;;;;;;;19.27;2.42;;;12.10;99.90;;;;;;5048887;28;20040;-81
2022/10/06 02:05:02;;;;;;;13.25;2.28;;;12.10;99.90;;;;;;5059937;28;20113;-82
2022/10/06 02:07:28;;;;;;;18.95;2.35;;;12.10;99.90;;;;;;5025605;28;20079;-83
2022/10/06 02:09:53;;;;;;;12.57;1.92;;;12.10;99.90;;;;;;5037496;28;20060;-82
2022/10/06 02:12:19;;;;;;;18.10;2.33;;;12.00;99.90;;;;;;5031827;28;20379;-84
2022/10/06 02:14:45;;;;;;;16.75;2.45;;;12.10;99.90;;;;;;5076789;28;20124;-87
2022/10/06 02:17:10;;;;;;;17.00;2.53;;;12.10;99.90;;;;;;5057086;28;20044;-83
2022/10/06 02:19:36;;;;;;;15.90;2.08;;;12.00;99.90;;;;;;5073663;28;20167;-83
2022/10/06 02:22:02;;;;;;;19.83;2.28;;;12.00;99.90;;;;;;5052711;28;20044;-85
2022/10/06 02:24:29;;;;;;;13.88;1.85;;;12.00;99.90;;;;;;5034850;28;20037;-82
2022/10/06 02:26:54;;;;;;;14.25;2.28;;;12.00;99.90;;;;;;5051778;28;20048;-83
2022/10/06 02:29:20;;;;;;;13.93;2.05;;;12.10;99.90;;;;;;5053907;28;20120;-84
2022/10/06 02:31:48;;;;;;;16.00;2.58;;;12.10;99.90;;;;;;5045242;28;20104;-83
2022/10/06 02:34:14;;;;;;;18.50;2.65;;;12.30;99.90;;;;;;5054023;28;20071;-86
2022/10/06 02:36:39;;;;;;;17.88;2.92;;;12.10;99.90;;;;;;5055177;28;20082;-84
2022/10/06 02:39:05;;;;;;;11.25;2.13;;;12.10;99.90;;;;;;5070174;28;20036;-82
2022/10/06 02:41:31;;;;;;;13.77;1.90;;;12.10;99.90;;;;;;5053924;28;20459;-83
2022/10/06 02:43:57;;;;;;;14.43;2.08;;;12.10;99.90;;;;;;5053554;28;20051;-82
2022/10/06 02:46:23;;;;;;;21.17;3.00;;;12.10;99.90;;;;;;5077142;28;20040;-86
2022/10/06 02:48:50;;;;;;;19.08;2.22;;;12.20;99.90;;;;;;5075586;28;20071;-85
2022/10/06 02:51:17;;;;;;;21.42;2.20;;;12.10;99.90;;;;;;5059628;28;20050;-82
2022/10/06 02:53:44;;;;;;;19.75;2.78;;;12.10;99.90;;;;;;5070045;28;20126;-83
2022/10/06 02:56:18;;;;;;;16.08;2.33;;;12.20;99.90;;;;;;5082052;28;20174;-82
2022/10/06 02:59:23;;;;;;;21.85;2.58;;;12.20;99.90;;;;;;5066612;28;20029;-80
2022/10/06 03:01:51;;;;;;;17.73;2.47;;;12.20;99.90;;;;;;5105636;28;20177;-82
2022/10/06 03:04:17;;;;;;;16.30;1.95;;;12.20;99.90;;;;;;5075436;28;20036;-82
2022/10/06 03:06:43;;;;;;;26.10;2.45;;;12.10;99.90;;;;;;5087621;28;20056;-83
2022/10/06 03:09:09;;;;;;;18.60;2.35;;;12.10;99.90;;;;;;5095679;28;20036;-82
2022/10/06 03:11:37;;;;;;;14.07;2.08;;;12.00;99.90;;;;;;5084502;28;20038;-83
2022/10/06 03:17:48;;;;;;;14.15;2.47;;;11.90;99.90;;;;;;5086846;28;20080;-84
2022/10/06 03:20:14;;;;;;;21.98;2.30;;;11.90;99.90;;;;;;5072172;28;20371;-84
2022/10/06 03:22:40;;;;;;;19.85;2.38;;;11.90;99.90;;;;;;5057793;28;20040;-83
2022/10/06 03:25:06;;;;;;;17.38;2.13;;;11.80;99.90;;;;;;5073831;28;20096;-82
2022/10/06 03:27:32;;;;;;;15.23;2.15;;;11.80;99.90;;;;;;5090235;28;20039;-84
2022/10/06 03:29:57;;;;;;;20.95;2.38;;;11.80;99.90;;;;;;5054886;28;20139;-85
2022/10/06 03:32:23;;;;;;;17.55;1.95;;;11.70;99.90;;;;;;5050613;28;20059;-85
2022/10/06 03:34:49;;;;;;;14.60;2.53;;;11.60;99.90;;;;;;5069518;28;20118;-80
2022/10/06 03:37:15;;;;;;;16.33;1.98;;;11.60;99.90;;;;;;5073662;28;20039;-82
2022/10/06 03:39:40;;;;;;;18.05;2.72;;;11.60;99.90;;;;;;5072120;28;20141;-82
2022/10/06 03:42:06;;;;;;;16.65;2.10;;;11.50;99.90;;;;;;5063446;28;20071;-82
2022/10/06 03:44:50;;;;;;;14.60;2.08;;;11.50;99.90;;;;;;5056011;28;20075;-84
2022/10/06 03:47:16;;;;;;;16.73;2.53;;;11.40;99.90;;;;;;5073588;28;20404;-84
2022/10/06 03:49:42;;;;;;;16.05;2.60;;;11.30;99.90;;;;;;5071951;28;20101;-86
2022/10/06 03:52:07;;;;;;;15.93;2.65;;;11.30;99.90;;;;;;5069811;28;20052;-84
2022/10/06 03:54:33;;;;;;;12.48;2.25;;;11.20;99.90;;;;;;5051799;28;20048;-84
2022/10/06 03:56:58;;;;;;;17.10;2.03;;;11.30;99.90;;;;;;5070323;28;20048;-86
2022/10/06 03:59:25;;;;;;;18.60;2.38;;;11.30;99.90;;;;;;5056878;28;20047;-85
2022/10/06 04:01:51;;;;;;;10.30;2.00;;;11.40;99.90;;;;;;5053351;28;20056;-82
2022/10/06 04:04:17;;;;;;;13.88;1.98;;;11.40;99.90;;;;;;5053814;28;20143;-83
2022/10/06 04:06:43;;;;;;;18.20;2.42;;;11.40;99.90;;;;;;5056599;28;20047;-84
2022/10/06 04:09:11;;;;;;;12.75;2.00;;;11.30;99.90;;;;;;5069989;28;20078;-83
2022/10/06 04:11:37;;;;;;;17.58;2.25;;;11.30;99.90;;;;;;5051596;28;20383;-84
2022/10/06 04:14:06;;;;;;;18.38;2.33;;;11.20;99.90;;;;;;5069225;28;20039;-83
2022/10/06 04:16:35;;;;;;;16.92;2.50;;;11.20;99.90;;;;;;5050101;28;20080;-83
2022/10/06 04:19:03;;;;;;;15.52;2.17;;;11.20;99.90;;;;;;5069485;28;20040;-84
2022/10/06 04:21:30;;;;;;;13.50;2.15;;;11.10;99.90;;;;;;5058075;28;20452;-85
2022/10/06 04:23:58;;;;;;;15.90;2.25;;;11.00;99.90;;;;;;5070036;28;20044;-81
2022/10/06 04:26:26;;;;;;;18.42;2.20;;;11.00;99.90;;;;;;5068358;28;20036;-85
2022/10/06 04:28:52;;;;;;;17.08;2.28;;;10.90;99.90;;;;;;5064800;28;20041;-86
2022/10/06 04:31:21;;;;;;;13.52;1.98;;;11.10;99.90;;;;;;5070095;28;20059;-84
2022/10/06 04:33:50;;;;;;;14.35;2.08;;;10.90;99.90;;;;;;5052735;28;20036;-87
2022/10/06 04:36:21;;;;;;;11.98;2.25;;;11.00;99.90;;;;;;5070245;28;20040;-82
2022/10/06 04:38:49;;;;;;;12.73;2.05;;;10.90;99.90;;;;;;5054212;28;20633;-84
2022/10/06 04:41:18;;;;;;;12.68;2.50;;;10.80;99.90;;;;;;5066313;28;20097;-82
2022/10/06 04:43:45;;;;;;;14.45;2.47;;;10.90;99.90;;;;;;5081964;28;20391;-86
2022/10/06 04:46:11;;;;;;;19.35;2.50;;;10.80;99.90;;;;;;5067726;28;20654;-84
2022/10/06 04:48:37;;;;;;;15.65;2.33;;;10.80;99.90;;;;;;5078820;28;20112;-84
2022/10/06 04:51:05;;;;;;;16.17;2.38;;;10.80;99.90;;;;;;5073506;28;20034;-83
2022/10/06 04:53:31;;;;;;;15.93;2.15;;;10.80;99.90;;;;;;5077709;28;20036;-88
2022/10/06 04:56:05;;;;;;;17.58;2.50;;;11.00;99.90;;;;;;5064082;28;20108;-84
2022/10/06 04:58:40;;;;;;;19.55;2.63;;;10.80;99.90;;;;;;5064419;28;20067;-86
2022/10/06 05:01:29;;;;;;;12.10;2.33;;;10.60;99.90;;;;;;5089955;28;20067;-81
2022/10/06 05:03:57;;;;;;;15.15;2.65;;;10.70;99.90;;;;;;5081390;28;20043;-86
2022/10/06 05:06:24;;;;;;;17.75;2.63;;;10.70;99.90;;;;;;5072712;28;20039;-81
2022/10/06 05:08:56;;;;;;;19.20;2.70;;;10.80;99.90;;;;;;5084370;28;20059;-83
2022/10/06 05:11:23;;;;;;;14.93;2.50;;;10.70;99.90;;;;;;5073202;28;20052;-84
2022/10/06 05:13:55;;;;;;;17.83;2.33;;;10.70;99.90;;;;;;5072354;28;20519;-85
2022/10/06 05:16:22;;;;;;;18.30;2.00;;;10.70;99.90;;;;;;5092110;28;20044;-84
2022/10/06 05:18:48;;;;;;;12.32;2.60;;;10.70;99.90;;;;;;5073564;28;20094;-83
2022/10/06 05:21:32;;;;;;;16.42;2.20;;;10.70;99.90;;;;;;5072874;28;20039;-82
2022/10/06 05:23:58;;;;;;;17.23;2.67;;;10.60;99.90;;;;;;5056500;28;20057;-84
2022/10/06 05:26:28;;;;;;;16.27;2.15;;;10.60;99.90;;;;;;5071643;28;20035;-82
2022/10/06 05:28:58;;;;;;;19.40;2.90;;;10.50;99.90;;;;;;5074909;28;20115;-83
2022/10/06 05:31:33;;;;;;;19.73;2.70;;;10.70;99.90;;;;;;5054315;28;20076;-84
2022/10/06 05:33:59;;;;;;;21.27;2.65;;;10.60;99.90;;;;;;5056311;28;20059;-85
2022/10/06 05:36:28;;;;;;;24.30;2.42;;;10.70;99.90;;;;;;5056475;28;20085;-79
2022/10/06 05:38:55;;;;;;;21.52;2.78;;;10.70;99.90;;;;;;5069687;28;20067;-80
2022/10/06 05:41:31;;;;;;;18.50;2.20;;;10.60;99.90;;;;;;5069419;28;20071;-78
2022/10/06 05:44:03;;;;;;;13.60;2.72;;;10.60;99.90;;;;;;5035465;28;20068;-80
2022/10/06 05:46:31;;;;;;;18.02;2.40;;;10.60;99.90;;;;;;5051412;28;20541;-80
2022/10/06 05:48:59;;;;;;;12.60;2.33;;;10.50;99.90;;;;;;5052853;28;20096;-82
2022/10/06 05:51:28;;;;;;;16.38;2.10;;;10.50;99.90;;;;;;5073956;28;20375;-81
2022/10/06 05:53:53;;;;;;;14.23;2.22;;;10.50;99.90;;;;;;5052431;28;20040;-81
2022/10/06 05:56:23;;;;;;;19.27;2.50;;;10.60;99.90;;;;;;5059476;28;20104;-80
2022/10/06 05:58:53;;;;;;;17.95;2.55;;;10.50;99.90;;;;;;5071733;28;20498;-83
2022/10/06 06:01:19;;;;;;;17.67;2.33;;;10.60;99.90;;;;;;5069181;28;20032;-85
2022/10/06 06:03:50;;;;;;;19.35;2.90;;;10.50;99.90;;;;;;5067844;28;20357;-86
2022/10/06 06:06:24;;;;;;;19.05;2.53;;;10.60;99.90;;;;;;5051932;28;20453;-83
2022/10/06 06:08:55;;;;;;;14.15;2.40;;;10.60;99.90;;;;;;5072373;28;20028;-83
2022/10/06 06:11:24;;;;;;;18.45;2.63;;;10.60;99.90;;;;;;5056972;28;20040;-83
2022/10/06 06:14:12;;;;;;;23.48;2.45;;;10.50;99.90;;;;;;5052688;28;20054;-83
2022/10/06 06:16:39;;;;;;;19.92;2.88;;;10.60;99.90;;;;;;5082504;28;20051;-82
2022/10/06 06:19:06;;;;;;;29.13;2.88;;;10.70;99.90;;;;;;5081070;28;20106;-86
2022/10/06 06:21:33;;;;;;;22.25;2.35;;;10.70;99.90;;;;;;5088908;28;20107;-84
2022/10/06 06:23:58;;;;;;;14.52;2.30;;;10.80;99.90;;;;;;5065446;28;20060;-83
2022/10/06 06:26:27;;;;;;;15.20;2.38;;;10.80;99.90;;;;;;5081997;28;20058;-86
2022/10/06 06:31:58;;;;;;;13.85;2.60;;;10.90;99.90;;;;;;5097668;28;20104;-82
2022/10/06 06:34:26;;;;;;;21.08;3.25;;;11.00;99.90;;;;;;5065316;28;20463;-83
2022/10/06 06:36:53;;;;;;;20.77;2.42;;;11.00;99.90;;;;;;5071623;28;20402;-83
2022/10/06 06:39:20;;;;;;;21.77;3.00;;;11.10;99.90;;;;;;5062606;28;20039;-83
2022/10/06 06:41:46;;;;;;;18.33;2.58;;;11.10;99.90;;;;;;5056558;28;20040;-85
2022/10/06 06:44:13;;;;;;;18.38;2.95;;;11.20;99.90;;;;;;5072416;28;20047;-85
2022/10/06 06:46:42;;;;;;;19.73;2.60;;;11.30;99.90;;;;;;5071292;28;20052;-84
2022/10/06 06:49:08;;;;;;;14.73;2.53;;;11.50;99.90;;;;;;5050900;28;20086;-83
2022/10/06 06:51:36;;;;;;;20.98;2.60;;;11.50;99.90;;;;;;5052137;28;20527;-83
2022/10/06 06:54:03;;;;;;;19.60;2.70;;;11.50;99.90;;;;;;5070084;28;20356;-84
2022/10/06 06:56:37;;;;;;;15.48;2.47;;;11.50;99.90;;;;;;5068573;28;20467;-86
2022/10/06 06:59:24;;;;;;;19.52;2.85;;;11.60;99.90;;;;;;5062125;28;20071;-85
2022/10/06 07:01:49;;;;;;;18.38;2.60;;;11.70;99.90;;;;;;5055603;28;20047;-84
2022/10/06 07:04:16;;;;;;;25.67;2.90;;;11.80;99.90;;;;;;5053582;28;20040;-82
2022/10/06 07:06:52;;;;;;;15.88;2.75;;;11.90;99.90;;;;;;5066111;28;20340;-83
2022/10/06 07:09:19;;;;;;;22.65;2.97;;;12.00;99.90;;;;;;5047240;28;20055;-82
2022/10/06 07:11:45;;;;;;;13.90;2.25;;;12.00;99.90;;;;;;5049959;28;20035;-83
2022/10/06 07:14:12;;;;;;;18.52;2.55;;;11.90;99.90;;;;;;5048239;28;20048;-82
2022/10/06 07:25:11;;;;;;;17.35;2.40;;;12.00;99.90;;;;;;5065152;28;20059;-84
2022/10/06 07:27:51;;;;;;;12.27;2.20;;;12.10;99.90;;;;;;5047476;28;20048;-85
2022/10/06 07:30:25;;;;;;;20.90;2.88;;;12.20;99.90;;;;;;5050078;28;20048;-84
2022/10/06 07:32:51;;;;;;;19.40;3.35;;;12.20;99.90;;;;;;5049859;28;20052;-84
2022/10/06 07:35:19;;;;;;;21.05;2.70;;;12.30;99.90;;;;;;5081570;28;22545;-82
2022/10/06 07:37:45;;;;;;;18.48;2.85;;;12.30;99.90;;;;;;5086108;28;20122;-82
2022/10/06 07:40:11;;;;;;;13.00;2.33;;;12.40;99.90;;;;;;5069514;28;20050;-82
2022/10/06 07:42:47;;;;;;;18.98;2.50;;;12.50;99.90;;;;;;5070303;28;20089;-84
2022/10/06 07:45:37;;;;;;;20.25;2.88;;;12.50;99.90;;;;;;5037870;28;20062;-82
2022/10/06 07:48:04;;;;;;;16.42;2.38;;;12.50;99.90;;;;;;5048414;28;20472;-82
2022/10/06 07:50:32;;;;;;;17.50;2.47;;;12.50;99.90;;;;;;5072144;28;20495;-83
2022/10/06 07:53:03;;;;;;;17.38;2.42;;;12.60;99.90;;;;;;5071147;28;20052;-82
2022/10/06 07:55:30;;;;;;;14.40;2.83;;;12.50;99.90;;;;;;5058744;28;20039;-82
2022/10/06 07:57:56;;;;;;;20.35;2.42;;;12.70;99.90;;;;;;5054504;28;20340;-83
2022/10/06 08:00:22;;;;;;;17.55;2.60;;;12.70;99.90;;;;;;5069315;28;20074;-81
2022/10/06 08:02:48;;;;;;;20.30;2.70;;;12.80;99.90;;;;;;5063735;28;20051;-84
2022/10/06 08:05:14;;;;;;;12.63;2.85;;;12.80;99.90;;;;;;5058369;28;20482;-82
2022/10/06 08:07:40;;;;;;;21.08;2.83;;;12.90;99.90;;;;;;5051599;28;20044;-83
2022/10/06 08:10:07;;;;;;;14.18;2.25;;;12.90;99.90;;;;;;5064015;28;20161;-83
2022/10/06 08:12:33;;;;;;;16.55;2.85;;;13.00;99.90;;;;;;5053493;28;20381;-82
2022/10/06 08:15:02;;;;;;;17.27;2.17;;;13.00;99.90;;;;;;5063885;28;20056;-81
2022/10/06 08:17:29;;;;;;;19.00;2.28;;;13.00;99.90;;;;;;5066754;28;20112;-82
2022/10/06 08:19:55;;;;;;;15.75;2.35;;;13.10;99.90;;;;;;5074727;28;20079;-81
2022/10/06 08:22:21;;;;;;;15.13;2.55;;;13.20;99.90;;;;;;5054667;28;20052;-84
2022/10/06 08:24:47;;;;;;;15.18;2.40;;;13.20;99.90;;;;;;5072913;28;20055;-84
2022/10/06 08:27:13;;;;;;;17.00;2.67;;;13.20;99.90;;;;;;5058798;28;20124;-84
2022/10/06 08:29:44;;;;;;;14.20;2.30;;;13.30;99.90;;;;;;5109510;28;20164;-82
2022/10/06 08:32:09;;;;;;;18.95;2.40;;;13.30;99.90;;;;;;5056312;28;20056;-83
2022/10/06 08:34:35;;;;;;;19.05;2.72;;;13.40;99.90;;;;;;5054071;28;20039;-84
2022/10/06 08:37:02;;;;;;;15.88;2.22;;;13.30;99.90;;;;;;5052465;28;20052;-83
2022/10/06 08:39:29;;;;;;;16.80;2.25;;;13.40;99.90;;;;;;5055573;28;20066;-85
2022/10/06 08:41:56;;;;;;;22.90;3.15;;;13.50;99.90;;;;;;5053296;28;20040;-83
2022/10/06 08:44:43;;;;;;;17.55;2.38;;;13.50;99.90;;;;;;5056633;28;20048;-84
2022/10/06 08:47:16;;;;;;;19.17;2.25;;;13.50;99.90;;;;;;5055057;28;20442;-85
2022/10/06 08:49:47;;;;;;;16.90;2.72;;;13.50;99.90;;;;;;5048815;28;20067;-83
2022/10/06 08:52:40;;;;;;;13.57;2.28;;;13.60;99.90;;;;;;5069098;28;20052;-83
2022/10/06 08:55:30;;;;;;;15.63;2.17;;;13.70;99.90;;;;;;5072525;28;20329;-84
2022/10/06 08:58:05;;;;;;;14.82;2.30;;;13.70;99.90;;;;;;5078845;28;20028;-84
2022/10/06 09:00:34;;;;;;;14.55;2.30;;;13.80;99.90;;;;;;5069925;28;20059;-83
2022/10/06 09:03:01;;;;;;;12.05;2.05;;;13.80;99.90;;;;;;5051337;28;20159;-84
2022/10/06 09:05:28;;;;;;;15.20;2.60;;;13.90;99.90;;;;;;5066598;28;20109;-83
2022/10/06 09:08:07;;;;;;;17.23;2.65;;;13.90;99.90;;;;;;5060776;28;20085;-83
2022/10/06 09:10:51;;;;;;;15.32;2.20;;;14.00;99.90;;;;;;5055554;28;20317;-81
2022/10/06 09:13:23;;;;;;;16.48;2.45;;;14.00;99.90;;;;;;5065521;28;20498;-85
2022/10/06 09:15:54;;;;;;;15.57;2.35;;;14.10;99.90;;;;;;5063297;28;20068;-84
2022/10/06 09:18:44;;;;;;;17.40;2.30;;;14.20;99.90;;;;;;5039138;28;20135;-82
2022/10/06 09:21:29;;;;;;;19.25;2.75;;;14.30;99.90;;;;;;5036509;28;20121;-83
2022/10/06 09:24:02;;;;;;;17.25;2.90;;;14.40;99.90;;;;;;5041191;28;20139;-83
2022/10/06 09:26:33;;;;;;;11.25;2.17;;;14.50;99.90;;;;;;5036416;28;20060;-83
2022/10/06 09:29:02;;;;;;;16.83;2.55;;;14.50;99.90;;;;;;5054455;28;20063;-82
2022/10/06 09:31:36;;;;;;;11.65;2.17;;;14.50;99.90;;;;;;5054972;28;20048;-82
2022/10/06 09:34:17;;;;;;;16.85;2.40;;;14.60;99.90;;;;;;5059893;28;20047;-83
2022/10/06 09:37:01;;;;;;;13.05;2.17;;;14.60;99.90;;;;;;5061874;28;20051;-81
2022/10/06 09:39:35;;;;;;;9.90;2.00;;;14.60;99.90;;;;;;5057273;28;20048;-83
2022/10/06 09:42:06;;;;;;;8.88;1.80;;;14.70;99.90;;;;;;5062666;28;20057;-82
2022/10/06 09:48:19;;;;;;;17.95;2.10;;;14.80;99.90;;;;;;5077022;28;20101;-84
2022/10/06 09:51:07;;;;;;;14.75;2.42;;;14.80;99.90;;;;;;5067926;28;20099;-81
2022/10/06 09:53:34;;;;;;;14.25;2.30;;;14.70;99.90;;;;;;5095920;28;20047;-81
2022/10/06 09:56:03;;;;;;;16.52;2.35;;;14.70;99.90;;;;;;5066993;28;20470;-81
2022/10/06 09:58:33;;;;;;;11.63;1.95;;;14.80;99.90;;;;;;5062821;28;20062;-82
2022/10/06 10:01:08;;;;;;;14.27;2.00;;;15.00;99.90;;;;;;5075019;28;20056;-83
2022/10/06 10:04:07;;;;;;;12.60;1.95;;;15.00;99.90;;;;;;5050291;28;20056;-83
2022/10/06 10:06:33;;;;;;;12.90;1.95;;;15.00;99.90;;;;;;5053975;28;20068;-83
2022/10/06 10:09:16;;;;;;;19.45;1.80;;;15.10;99.90;;;;;;5061487;28;20059;-83
2022/10/06 10:14:26;;;;;;;13.75;2.30;;;14.90;99.90;;;;;;5074099;28;20487;-83
2022/10/06 10:16:52;;;;;;;14.98;2.20;;;14.90;99.90;;;;;;5093987;28;20040;-82
2022/10/06 10:19:21;;;;;;;17.83;2.20;;;15.00;99.90;;;;;;5055764;28;20444;-82
2022/10/06 10:21:47;;;;;;;12.68;2.28;;;15.00;99.90;;;;;;5072420;28;20048;-82
2022/10/06 10:24:26;;;;;;;13.98;2.05;;;15.00;99.90;;;;;;5050843;28;20094;-83
2022/10/06 10:26:59;;;;;;;14.90;1.90;;;15.00;99.90;;;;;;5088481;28;20078;-83
2022/10/06 10:29:34;;;;;;;10.23;1.60;;;15.10;99.90;;;;;;5051959;28;20045;-83
2022/10/06 10:32:20;;;;;;;;;;;15.10;99.90;;;;;;5055605;28;20056;-81
2022/10/06 10:35:24;;;;;;;16.83;1.70;;;15.20;99.90;;;;;;5044296;28;19920;-83
2022/10/06 10:38:20;;;;;;;13.43;2.17;;;15.40;99.90;;;;;;5057675;28;20075;-82
2022/10/06 10:40:53;;;;;;;;;;;15.60;99.90;;;;;;5056595;28;20044;-83
2022/10/06 10:43:40;;;;;;;7.88;1.50;;;15.70;99.90;;;;;;5072119;28;19998;-81
2022/10/06 10:46:21;;;;;;;10.15;1.73;;;15.80;99.90;;;;;;5055872;28;20599;-82
2022/10/06 10:48:55;;;;;;;12.38;2.08;;;15.70;99.90;;;;;;5059645;28;20052;-79
2022/10/06 10:51:24;;;;;;;15.35;1.83;;;15.70;99.90;;;;;;5073849;28;20037;-82
2022/10/06 10:54:03;;;;;;;18.05;2.58;;;15.90;99.90;;;;;;5048536;28;20044;-80
2022/10/06 10:56:32;;;;;;;10.45;1.60;;;15.80;99.90;;;;;;5058095;28;20568;-81
2022/10/06 10:59:25;;;;;;;8.95;1.60;;;15.80;99.90;;;;;;5096491;28;20457;-81
2022/10/06 11:02:00;;;;;;;11.30;2.15;;;15.90;99.90;;;;;;5079461;28;20128;-81
2022/10/06 11:04:26;;;;;;;15.98;1.70;;;16.00;99.90;;;;;;5059876;28;20077;-81
2022/10/06 11:07:07;;;;;;;8.77;1.70;;;15.80;99.90;;;;;;5046423;28;20052;-81
2022/10/06 11:10:20;;;;;;;8.40;1.70;;;15.90;99.90;;;;;;5062107;28;20126;-83
2022/10/06 11:13:09;;;;;;;9.20;1.67;;;15.80;99.90;;;;;;4960832;28;20046;-82
2022/10/06 11:15:52;;;;;;;12.43;2.00;;;15.80;99.90;;;;;;4982038;28;20440;-84
2022/10/06 11:18:48;;;;;;;11.65;1.52;;;16.00;99.90;;;;;;4955586;28;20101;-82
2022/10/06 11:21:33;;;;;;;14.80;1.80;;;15.90;99.90;;;;;;4959720;28;20053;-82
2022/10/06 11:24:13;;;;;;;11.60;1.75;;;15.90;99.90;;;;;;4960395;28;20192;-84
2022/10/06 11:27:08;;;;;;;9.48;1.58;;;16.00;99.90;;;;;;4969397;28;20193;-82
2022/10/06 11:29:49;;;;;;;16.30;1.50;;;15.90;99.90;;;;;;4907726;29;20054;-82
2022/10/06 11:32:30;;;;;;;10.32;1.77;;;16.00;99.90;;;;;;4898402;29;20183;-82
2022/10/06 11:34:56;;;;;;;7.90;1.35;;;16.00;99.90;;;;;;4932438;29;20046;-83
2022/10/06 11:37:39;;;;;;;12.20;1.67;;;16.10;99.90;;;;;;4916493;29;20365;-82
2022/10/06 11:40:48;;;;;;;12.15;2.05;;;16.00;99.90;;;;;;4918257;29;20087;-82
2022/10/06 11:43:28;;;;;;;11.93;1.65;;;15.90;99.90;;;;;;4883377;29;20121;-81
2022/10/06 11:46:03;;;;;;;7.35;1.17;;;16.00;99.90;;;;;;4866244;29;20109;-82
2022/10/06 11:48:30;;;;;;;6.60;1.50;;;16.10;99.90;;;;;;4890992;29;20079;-83
2022/10/06 11:51:16;;;;;;;9.93;1.60;;;16.20;99.90;;;;;;4913211;29;20047;-83
2022/10/06 11:53:44;;;;;;;10.95;1.60;;;16.10;99.90;;;;;;4915635;29;20048;-84
2022/10/06 11:56:15;;;;;;;8.27;1.75;;;16.20;99.90;;;;;;4930151;29;20039;-82
2022/10/06 11:58:56;;;;;;;10.35;1.73;;;16.20;99.90;;;;;;4921793;29;20389;-81
2022/10/06 12:01:31;;;;;;;12.30;1.55;;;16.30;99.90;;;;;;4930525;29;20075;-83
2022/10/06 12:04:08;;;;;;;11.50;1.30;;;16.30;99.90;;;;;;4928064;29;20095;-82
2022/10/06 12:06:53;;;;;;;9.48;1.13;;;16.30;99.90;;;;;;4984676;28;20341;-81
2022/10/06 12:09:27;;;;;;;7.63;1.38;;;16.40;99.90;;;;;;4958069;28;20046;-83
2022/10/06 12:11:55;;;;;;;11.35;1.55;;;16.40;99.90;;;;;;4957269;28;20047;-82
2022/10/06 12:14:35;;;;;;;7.15;1.30;;;16.40;99.90;;;;;;5002731;28;20170;-83
2022/10/06 12:17:13;;;;;;;8.68;1.50;;;16.40;99.90;;;;;;4964895;28;20358;-82
2022/10/06 12:20:23;;;;;;;8.52;1.30;;;16.50;99.90;;;;;;5030062;28;20139;-82
2022/10/06 12:22:57;;;;;;;9.98;1.63;;;16.60;99.90;;;;;;4955201;28;20085;-82
2022/10/06 12:25:55;;;;;;;8.88;1.38;;;16.80;99.90;;;;;;4941885;28;20055;-83
2022/10/06 12:28:34;;;;;;;9.57;1.40;;;16.80;99.90;;;;;;4949795;28;20198;-82
2022/10/06 12:31:01;;;;;;;10.52;1.38;;;16.70;99.90;;;;;;4955061;28;20042;-82
2022/10/06 12:33:41;;;;;;;7.13;1.30;;;16.70;99.90;;;;;;4951892;28;20051;-83
2022/10/06 12:36:27;;;;;;;13.73;1.48;;;16.70;99.90;;;;;;4955057;28;20134;-83
2022/10/06 12:39:23;;;;;;;11.20;1.60;;;16.80;99.90;;;;;;4951770;28;20051;-82
2022/10/06 12:42:18;;;;;;;12.77;1.70;;;16.90;99.90;;;;;;4948804;28;20046;-82
2022/10/06 12:44:51;;;;;;;9.07;1.70;;;16.80;99.90;;;;;;4950035;28;20089;-83
2022/10/06 12:47:33;;;;;;;12.82;1.95;;;16.80;99.90;;;;;;4952480;28;20057;-81
2022/10/06 12:50:03;;;;;;;6.22;1.13;;;16.80;99.90;;;;;;4953649;28;20027;-82
2022/10/06 12:52:49;;;;;;;8.25;1.30;;;17.00;99.90;;;;;;4971751;28;20109;-85
2022/10/06 12:55:33;;;;;;;11.88;2.03;;;16.90;99.90;;;;;;4955947;28;20046;-83
2022/10/06 12:58:00;;;;;;;8.10;1.23;;;16.90;99.90;;;;;;4938883;28;20074;-82
2022/10/06 13:00:42;;;;;;;11.68;1.60;;;16.70;99.90;;;;;;5041771;28;20059;-84
2022/10/06 13:03:33;;;;;;;12.35;1.70;;;16.70;99.90;;;;;;5071285;28;20040;-83
2022/10/06 13:06:04;;;;;;;9.88;1.52;;;16.80;99.90;;;;;;5062343;28;20040;-82
2022/10/06 13:08:34;;;;;;;30.70;1.88;;;16.80;99.90;;;;;;5062048;28;20447;-83
2022/10/06 13:11:20;;;;;;;11.25;1.67;;;17.00;99.90;;;;;;5085787;28;20085;-83
2022/10/06 13:13:51;;;;;;;11.10;1.85;;;16.90;99.90;;;;;;5081976;28;20059;-83
2022/10/06 13:16:21;;;;;;;11.55;1.73;;;16.90;99.90;;;;;;5063088;28;20059;-83
2022/10/06 13:19:01;;;;;;;12.63;2.05;;;16.60;99.90;;;;;;5065939;28;20040;-84
2022/10/06 13:21:39;;;;;;;10.23;1.92;;;16.40;99.90;;;;;;5092588;28;20100;-84
2022/10/06 13:24:15;;;;;;;8.38;1.88;;;16.50;99.90;;;;;;5057221;28;20110;-86